sensor_id;sensor_type;location;lat;lon;timestamp;temperature;humidity
4749;DHT22;2388;53.582;9.962;2023-12-20T00:01:17;6.50;99.90
4749;DHT22;2388;53.582;9.962;2023-12-20T00:03:42;6.40;99.90
4749;DHT22;2388;53.582;9.962;2023-12-20T00:06:08;6.40;99.90
4749;DHT22;2388;53.582;9.962;2023-12-20T00:08:33;6.30;99.90
4749;DHT22;2388;53.582;9.962;2023-12-20T00:10:59;6.30;99.90
4749;DHT22;2388;53.582;9.962;2023-12-20T00:13:24;6.30;99.90
4749;DHT22;2388;53.582;9.962;2023-12-20T00:15:50;6.20;99.90
4749;DHT22;2388;53.582;9.962;2023-12-20T00:18:15;6.20;99.90
4749;DHT22;2388;53.582;9.962;2023-12-20T00:20:41;6.20;99.90
4749;DHT22;2388;53.582;9.962;2023-12-20T00:23:06;6.20;99.90
4749;DHT22;2388;53.582;9.962;2023-12-20T00:25:33;6.10;99.90
4749;DHT22;2388;53.582;9.962;2023-12-20T00:27:59;6.10;99.90
4749;DHT22;2388;53.582;9.962;2023-12-20T00:30:24;6.10;99.90
4749;DHT22;2388;53.582;9.962;2023-12-20T00:32:50;6.10;99.90
4749;DHT22;2388;53.582;9.962;2023-12-20T00:35:16;6.10;99.90
4749;DHT22;2388;53.582;9.962;2023-12-20T00:37:42;6.10;99.90
4749;DHT22;2388;53.582;9.962;2023-12-20T00:40:09;6.10;99.90
4749;DHT22;2388;53.582;9.962;2023-12-20T00:42:35;6.10;99.90
4749;DHT22;2388;53.582;9.962;2023-12-20T00:45:01;6.10;99.90
4749;DHT22;2388;53.582;9.962;2023-12-20T00:47:27;6.10;99.90
4749;DHT22;2388;53.582;9.962;2023-12-20T00:49:53;6.10;99.90
4749;DHT22;2388;53.582;9.962;2023-12-20T00:52:18;6.10;99.90
4749;DHT22;2388;53.582;9.962;2023-12-20T00:54:44;6.10;99.90
4749;DHT22;2388;53.582;9.962;2023-12-20T00:57:10;6.10;99.90
4749;DHT22;2388;53.582;9.962;2023-12-20T00:59:35;6.10;99.90
4749;DHT22;2388;53.582;9.962;2023-12-20T01:02:01;6.10;99.90
4749;DHT22;2388;53.582;9.962;2023-12-20T01:04:27;6.10;99.90
4749;DHT22;2388;53.582;9.962;2023-12-20T01:06:53;6.10;99.90
4749;DHT22;2388;53.582;9.962;2023-12-20T01:09:18;6.10;99.90
4749;DHT22;2388;53.582;9.962;2023-12-20T01:11:44;6.00;99.90
4749;DHT22;2388;53.582;9.962;2023-12-20T01:14:11;6.10;99.90
4749;DHT22;2388;53.582;9.962;2023-12-20T01:16:37;6.00;99.90
4749;DHT22;2388;53.582;9.962;2023-12-20T01:19:02;6.00;99.90
4749;DHT22;2388;53.582;9.962;2023-12-20T01:21:28;6.00;99.90
4749;DHT22;2388;53.582;9.962;2023-12-20T01:23:53;6.00;99.90
4749;DHT22;2388;53.582;9.962;2023-12-20T01:26:19;6.00;99.90
4749;DHT22;2388;53.582;9.962;2023-12-20T01:28:44;6.00;99.90
4749;DHT22;2388;53.582;9.962;2023-12-20T01:31:10;6.00;99.90
4749;DHT22;2388;53.582;9.962;2023-12-20T01:33:35;6.00;99.90
4749;DHT22;2388;53.582;9.962;2023-12-20T01:36:00;5.90;99.90
4749;DHT22;2388;53.582;9.962;2023-12-20T01:38:26;5.90;99.90
4749;DHT22;2388;53.582;9.962;2023-12-20T01:40:51;5.80;99.90
4749;DHT22;2388;53.582;9.962;2023-12-20T01:43:17;5.80;99.90
4749;DHT22;2388;53.582;9.962;2023-12-20T01:45:42;5.90;99.90
4749;DHT22;2388;53.582;9.962;2023-12-20T01:48:08;5.80;99.90
4749;DHT22;2388;53.582;9.962;2023-12-20T01:50:36;5.80;99.90
4749;DHT22;2388;53.582;9.962;2023-12-20T01:53:04;5.80;99.90
4749;DHT22;2388;53.582;9.962;2023-12-20T01:55:33;5.80;99.90
4749;DHT22;2388;53.582;9.962;2023-12-20T01:58:00;5.90;99.90
4749;DHT22;2388;53.582;9.962;2023-12-20T02:00:27;5.80;99.90
4749;DHT22;2388;53.582;9.962;2023-12-20T02:02:54;5.80;99.90
4749;DHT22;2388;53.582;9.962;2023-12-20T02:05:21;5.80;99.90
4749;DHT22;2388;53.582;9.962;2023-12-20T02:07:47;5.80;99.90
4749;DHT22;2388;53.582;9.962;2023-12-20T02:10:14;5.80;99.90
4749;DHT22;2388;53.582;9.962;2023-12-20T02:12:40;5.80;99.90
4749;DHT22;2388;53.582;9.962;2023-12-20T02:15:06;5.80;99.90
4749;DHT22;2388;53.582;9.962;2023-12-20T02:17:32;5.80;99.90
4749;DHT22;2388;53.582;9.962;2023-12-20T02:19:58;5.80;99.90
4749;DHT22;2388;53.582;9.962;2023-12-20T02:22:24;5.80;99.90
4749;DHT22;2388;53.582;9.962;2023-12-20T02:24:49;5.70;99.90
4749;DHT22;2388;53.582;9.962;2023-12-20T02:27:15;5.80;99.90
4749;DHT22;2388;53.582;9.962;2023-12-20T02:29:43;5.80;99.90
4749;DHT22;2388;53.582;9.962;2023-12-20T02:32:08;5.80;99.90
4749;DHT22;2388;53.582;9.962;2023-12-20T02:34:33;5.80;99.90
4749;DHT22;2388;53.582;9.962;2023-12-20T02:36:59;5.80;99.90
4749;DHT22;2388;53.582;9.962;2023-12-20T02:39:25;5.80;99.90
4749;DHT22;2388;53.582;9.962;2023-12-20T02:41:50;5.80;99.90
4749;DHT22;2388;53.582;9.962;2023-12-20T02:44:16;5.80;99.90
4749;DHT22;2388;53.582;9.962;2023-12-20T02:46:41;5.80;99.90
4749;DHT22;2388;53.582;9.962;2023-12-20T02:49:07;5.80;99.90
4749;DHT22;2388;53.582;9.962;2023-12-20T02:51:33;6.70;99.90
4749;DHT22;2388;53.582;9.962;2023-12-20T02:53:58;5.80;99.90
4749;DHT22;2388;53.582;9.962;2023-12-20T02:56:24;5.90;99.90
4749;DHT22;2388;53.582;9.962;2023-12-20T02:58:49;5.90;99.90
4749;DHT22;2388;53.582;9.962;2023-12-20T03:01:15;5.90;99.90
4749;DHT22;2388;53.582;9.962;2023-12-20T03:03:40;5.90;99.90
4749;DHT22;2388;53.582;9.962;2023-12-20T03:06:06;5.90;99.90
4749;DHT22;2388;53.582;9.962;2023-12-20T03:08:31;5.90;99.90
4749;DHT22;2388;53.582;9.962;2023-12-20T03:10:59;5.80;99.90
4749;DHT22;2388;53.582;9.962;2023-12-20T03:13:24;5.80;99.90
4749;DHT22;2388;53.582;9.962;2023-12-20T03:15:50;5.80;99.90
4749;DHT22;2388;53.582;9.962;2023-12-20T03:18:15;5.80;99.90
4749;DHT22;2388;53.582;9.962;2023-12-20T03:20:41;5.80;99.90
4749;DHT22;2388;53.582;9.962;2023-12-20T03:23:07;5.80;99.90
4749;DHT22;2388;53.582;9.962;2023-12-20T03:25:32;5.80;99.90
4749;DHT22;2388;53.582;9.962;2023-12-20T03:27:58;5.80;99.90
4749;DHT22;2388;53.582;9.962;2023-12-20T03:30:23;5.80;99.90
4749;DHT22;2388;53.582;9.962;2023-12-20T03:32:49;5.80;99.90
4749;DHT22;2388;53.582;9.962;2023-12-20T03:35:14;5.80;99.90
4749;DHT22;2388;53.582;9.962;2023-12-20T03:37:40;5.80;99.90
4749;DHT22;2388;53.582;9.962;2023-12-20T03:40:05;5.80;99.90
4749;DHT22;2388;53.582;9.962;2023-12-20T03:42:31;5.80;99.90
4749;DHT22;2388;53.582;9.962;2023-12-20T03:44:56;5.80;99.90
4749;DHT22;2388;53.582;9.962;2023-12-20T03:47:22;5.80;99.90
4749;DHT22;2388;53.582;9.962;2023-12-20T03:49:47;5.80;99.90
4749;DHT22;2388;53.582;9.962;2023-12-20T03:52:13;5.80;99.90
4749;DHT22;2388;53.582;9.962;2023-12-20T03:54:38;5.80;99.90
4749;DHT22;2388;53.582;9.962;2023-12-20T03:57:04;5.80;99.90
4749;DHT22;2388;53.582;9.962;2023-12-20T03:59:32;5.90;99.90
4749;DHT22;2388;53.582;9.962;2023-12-20T04:01:59;5.80;99.90
4749;DHT22;2388;53.582;9.962;2023-12-20T04:04:25;5.90;99.90
4749;DHT22;2388;53.582;9.962;2023-12-20T04:06:50;5.90;99.90
4749;DHT22;2388;53.582;9.962;2023-12-20T04:09:16;5.90;99.90
4749;DHT22;2388;53.582;9.962;2023-12-20T04:11:41;5.90;99.90
4749;DHT22;2388;53.582;9.962;2023-12-20T04:14:07;5.90;99.90
4749;DHT22;2388;53.582;9.962;2023-12-20T04:16:32;5.90;99.90
4749;DHT22;2388;53.582;9.962;2023-12-20T04:18:58;5.90;99.90
4749;DHT22;2388;53.582;9.962;2023-12-20T04:21:24;5.90;99.90
4749;DHT22;2388;53.582;9.962;2023-12-20T04:23:49;5.90;99.90
4749;DHT22;2388;53.582;9.962;2023-12-20T04:26:14;5.90;99.90
4749;DHT22;2388;53.582;9.962;2023-12-20T04:28:40;5.90;99.90
4749;DHT22;2388;53.582;9.962;2023-12-20T04:31:05;5.90;99.90
4749;DHT22;2388;53.582;9.962;2023-12-20T04:33:31;5.90;99.90
4749;DHT22;2388;53.582;9.962;2023-12-20T04:35:56;5.90;99.90
4749;DHT22;2388;53.582;9.962;2023-12-20T04:38:22;5.90;99.90
4749;DHT22;2388;53.582;9.962;2023-12-20T04:40:48;5.90;99.90
4749;DHT22;2388;53.582;9.962;2023-12-20T04:43:13;5.90;99.90
4749;DHT22;2388;53.582;9.962;2023-12-20T04:45:39;5.90;99.90
4749;DHT22;2388;53.582;9.962;2023-12-20T04:48:05;5.90;99.90
4749;DHT22;2388;53.582;9.962;2023-12-20T04:50:30;5.90;99.90
4749;DHT22;2388;53.582;9.962;2023-12-20T04:52:56;5.90;99.90
4749;DHT22;2388;53.582;9.962;2023-12-20T04:55:21;5.90;99.90
4749;DHT22;2388;53.582;9.962;2023-12-20T04:57:47;5.90;99.90
4749;DHT22;2388;53.582;9.962;2023-12-20T05:00:12;5.90;99.90
4749;DHT22;2388;53.582;9.962;2023-12-20T05:02:39;6.00;99.90
4749;DHT22;2388;53.582;9.962;2023-12-20T05:05:05;6.00;99.90
4749;DHT22;2388;53.582;9.962;2023-12-20T05:07:30;6.00;99.90
4749;DHT22;2388;53.582;9.962;2023-12-20T05:09:56;6.10;99.90
4749;DHT22;2388;53.582;9.962;2023-12-20T05:12:21;6.10;99.90
4749;DHT22;2388;53.582;9.962;2023-12-20T05:14:47;6.10;99.90
4749;DHT22;2388;53.582;9.962;2023-12-20T05:17:12;6.10;99.90
4749;DHT22;2388;53.582;9.962;2023-12-20T05:19:38;6.10;99.90
4749;DHT22;2388;53.582;9.962;2023-12-20T05:22:03;6.10;99.90
4749;DHT22;2388;53.582;9.962;2023-12-20T05:24:29;6.10;99.90
4749;DHT22;2388;53.582;9.962;2023-12-20T05:26:54;6.20;99.90
4749;DHT22;2388;53.582;9.962;2023-12-20T05:29:20;6.10;99.90
4749;DHT22;2388;53.582;9.962;2023-12-20T05:31:45;6.10;99.90
4749;DHT22;2388;53.582;9.962;2023-12-20T05:34:11;6.10;99.90
4749;DHT22;2388;53.582;9.962;2023-12-20T05:36:37;6.10;99.90
4749;DHT22;2388;53.582;9.962;2023-12-20T05:39:04;6.20;99.90
4749;DHT22;2388;53.582;9.962;2023-12-20T05:41:30;6.20;99.90
4749;DHT22;2388;53.582;9.962;2023-12-20T05:43:55;6.20;99.90
4749;DHT22;2388;53.582;9.962;2023-12-20T05:46:23;6.20;99.90
4749;DHT22;2388;53.582;9.962;2023-12-20T05:48:49;6.10;99.90
4749;DHT22;2388;53.582;9.962;2023-12-20T05:51:14;6.10;99.90
4749;DHT22;2388;53.582;9.962;2023-12-20T05:53:40;6.10;99.90
4749;DHT22;2388;53.582;9.962;2023-12-20T05:56:05;6.10;99.90
4749;DHT22;2388;53.582;9.962;2023-12-20T05:58:32;6.00;99.90
4749;DHT22;2388;53.582;9.962;2023-12-20T06:00:58;6.00;99.90
4749;DHT22;2388;53.582;9.962;2023-12-20T06:03:23;6.10;99.90
4749;DHT22;2388;53.582;9.962;2023-12-20T06:05:49;6.00;99.90
4749;DHT22;2388;53.582;9.962;2023-12-20T06:08:14;6.10;99.90
4749;DHT22;2388;53.582;9.962;2023-12-20T06:10:40;6.00;99.90
4749;DHT22;2388;53.582;9.962;2023-12-20T06:13:05;6.10;99.90
4749;DHT22;2388;53.582;9.962;2023-12-20T06:15:32;6.10;99.90
4749;DHT22;2388;53.582;9.962;2023-12-20T06:17:57;6.10;99.90
4749;DHT22;2388;53.582;9.962;2023-12-20T06:20:23;6.00;99.90
4749;DHT22;2388;53.582;9.962;2023-12-20T06:22:48;6.00;99.90
4749;DHT22;2388;53.582;9.962;2023-12-20T06:25:14;6.10;99.90
4749;DHT22;2388;53.582;9.962;2023-12-20T06:27:39;6.00;99.90
4749;DHT22;2388;53.582;9.962;2023-12-20T06:30:07;6.10;99.90
4749;DHT22;2388;53.582;9.962;2023-12-20T06:32:32;6.10;99.90
4749;DHT22;2388;53.582;9.962;2023-12-20T06:34:59;6.10;99.90
4749;DHT22;2388;53.582;9.962;2023-12-20T06:37:25;6.10;99.90
4749;DHT22;2388;53.582;9.962;2023-12-20T06:39:50;6.10;99.90
4749;DHT22;2388;53.582;9.962;2023-12-20T06:42:16;6.10;99.90
4749;DHT22;2388;53.582;9.962;2023-12-20T06:44:41;6.10;99.90
4749;DHT22;2388;53.582;9.962;2023-12-20T06:47:07;6.20;99.90
4749;DHT22;2388;53.582;9.962;2023-12-20T06:49:33;6.20;99.90
4749;DHT22;2388;53.582;9.962;2023-12-20T06:51:58;6.20;99.90
4749;DHT22;2388;53.582;9.962;2023-12-20T06:54:24;6.20;99.90
4749;DHT22;2388;53.582;9.962;2023-12-20T06:56:49;6.20;99.90
4749;DHT22;2388;53.582;9.962;2023-12-20T06:59:15;6.20;99.90
4749;DHT22;2388;53.582;9.962;2023-12-20T07:01:41;6.20;99.90
4749;DHT22;2388;53.582;9.962;2023-12-20T07:04:06;6.20;99.90
4749;DHT22;2388;53.582;9.962;2023-12-20T07:06:32;6.20;99.90
4749;DHT22;2388;53.582;9.962;2023-12-20T07:08:57;6.20;99.90
4749;DHT22;2388;53.582;9.962;2023-12-20T07:11:23;6.20;99.90
4749;DHT22;2388;53.582;9.962;2023-12-20T07:13:49;6.10;99.90
4749;DHT22;2388;53.582;9.962;2023-12-20T07:16:15;6.20;99.90
4749;DHT22;2388;53.582;9.962;2023-12-20T07:18:40;6.20;99.90
4749;DHT22;2388;53.582;9.962;2023-12-20T07:21:06;6.20;99.90
4749;DHT22;2388;53.582;9.962;2023-12-20T07:23:33;6.20;99.90
4749;DHT22;2388;53.582;9.962;2023-12-20T07:25:59;6.20;99.90
4749;DHT22;2388;53.582;9.962;2023-12-20T07:28:24;6.20;99.90
4749;DHT22;2388;53.582;9.962;2023-12-20T07:30:50;6.20;99.90
4749;DHT22;2388;53.582;9.962;2023-12-20T07:33:16;6.30;99.90
4749;DHT22;2388;53.582;9.962;2023-12-20T07:35:41;6.30;99.90
4749;DHT22;2388;53.582;9.962;2023-12-20T07:38:07;6.30;99.90
4749;DHT22;2388;53.582;9.962;2023-12-20T07:40:32;6.40;99.90
4749;DHT22;2388;53.582;9.962;2023-12-20T07:42:58;6.30;99.90
4749;DHT22;2388;53.582;9.962;2023-12-20T07:45:23;6.30;99.90
4749;DHT22;2388;53.582;9.962;2023-12-20T07:47:49;6.40;99.90
4749;DHT22;2388;53.582;9.962;2023-12-20T07:50:15;6.40;99.90
4749;DHT22;2388;53.582;9.962;2023-12-20T07:52:41;6.40;99.90
4749;DHT22;2388;53.582;9.962;2023-12-20T07:55:07;6.40;99.90
4749;DHT22;2388;53.582;9.962;2023-12-20T07:57:32;6.40;99.90
4749;DHT22;2388;53.582;9.962;2023-12-20T07:59:58;6.40;99.90
4749;DHT22;2388;53.582;9.962;2023-12-20T08:02:23;6.40;99.90
4749;DHT22;2388;53.582;9.962;2023-12-20T08:04:49;6.50;99.90
4749;DHT22;2388;53.582;9.962;2023-12-20T08:07:14;6.50;99.90
4749;DHT22;2388;53.582;9.962;2023-12-20T08:09:40;6.50;99.90
4749;DHT22;2388;53.582;9.962;2023-12-20T08:12:05;6.60;99.90
4749;DHT22;2388;53.582;9.962;2023-12-20T08:14:31;6.60;99.90
4749;DHT22;2388;53.582;9.962;2023-12-20T08:16:57;6.60;99.90
4749;DHT22;2388;53.582;9.962;2023-12-20T08:19:22;6.60;99.90
4749;DHT22;2388;53.582;9.962;2023-12-20T08:21:48;6.60;99.90
4749;DHT22;2388;53.582;9.962;2023-12-20T08:24:13;6.60;99.90
4749;DHT22;2388;53.582;9.962;2023-12-20T08:26:39;6.60;99.90
4749;DHT22;2388;53.582;9.962;2023-12-20T08:29:04;6.60;99.90
4749;DHT22;2388;53.582;9.962;2023-12-20T08:31:30;6.70;99.90
4749;DHT22;2388;53.582;9.962;2023-12-20T08:33:55;6.70;99.90
4749;DHT22;2388;53.582;9.962;2023-12-20T08:36:22;6.70;99.90
4749;DHT22;2388;53.582;9.962;2023-12-20T08:38:48;6.70;99.90
4749;DHT22;2388;53.582;9.962;2023-12-20T08:41:15;6.70;99.90
4749;DHT22;2388;53.582;9.962;2023-12-20T08:43:40;6.70;99.90
4749;DHT22;2388;53.582;9.962;2023-12-20T08:46:06;6.80;99.90
4749;DHT22;2388;53.582;9.962;2023-12-20T08:48:31;6.80;99.90
4749;DHT22;2388;53.582;9.962;2023-12-20T08:50:57;6.80;99.90
4749;DHT22;2388;53.582;9.962;2023-12-20T08:53:22;6.90;99.90
4749;DHT22;2388;53.582;9.962;2023-12-20T08:55:48;6.80;99.90
4749;DHT22;2388;53.582;9.962;2023-12-20T08:58:14;6.80;99.90
4749;DHT22;2388;53.582;9.962;2023-12-20T09:00:39;6.80;99.90
4749;DHT22;2388;53.582;9.962;2023-12-20T09:03:05;6.70;99.90
4749;DHT22;2388;53.582;9.962;2023-12-20T09:05:30;6.70;99.90
4749;DHT22;2388;53.582;9.962;2023-12-20T09:07:56;6.70;99.90
4749;DHT22;2388;53.582;9.962;2023-12-20T09:10:21;6.70;99.90
4749;DHT22;2388;53.582;9.962;2023-12-20T09:12:49;6.60;99.90
4749;DHT22;2388;53.582;9.962;2023-12-20T09:15:14;6.60;99.90
4749;DHT22;2388;53.582;9.962;2023-12-20T09:17:40;6.50;99.90
4749;DHT22;2388;53.582;9.962;2023-12-20T09:20:07;6.60;99.90
4749;DHT22;2388;53.582;9.962;2023-12-20T09:22:34;6.60;99.90
4749;DHT22;2388;53.582;9.962;2023-12-20T09:24:59;6.50;99.90
4749;DHT22;2388;53.582;9.962;2023-12-20T09:27:25;6.50;99.90
4749;DHT22;2388;53.582;9.962;2023-12-20T09:29:51;6.50;99.90
4749;DHT22;2388;53.582;9.962;2023-12-20T09:32:16;6.50;99.90
4749;DHT22;2388;53.582;9.962;2023-12-20T09:34:42;6.40;99.90
4749;DHT22;2388;53.582;9.962;2023-12-20T09:37:08;6.30;99.90
4749;DHT22;2388;53.582;9.962;2023-12-20T09:39:33;6.30;99.90
4749;DHT22;2388;53.582;9.962;2023-12-20T09:42:04;6.30;99.90
4749;DHT22;2388;53.582;9.962;2023-12-20T09:44:30;6.30;99.90
4749;DHT22;2388;53.582;9.962;2023-12-20T09:46:57;6.30;99.90
4749;DHT22;2388;53.582;9.962;2023-12-20T09:49:22;6.30;99.90
4749;DHT22;2388;53.582;9.962;2023-12-20T09:51:50;6.40;99.90
4749;DHT22;2388;53.582;9.962;2023-12-20T09:54:20;6.40;99.90
4749;DHT22;2388;53.582;9.962;2023-12-20T09:56:46;6.30;99.90
4749;DHT22;2388;53.582;9.962;2023-12-20T09:59:13;6.30;99.90
4749;DHT22;2388;53.582;9.962;2023-12-20T10:01:39;6.30;99.90
4749;DHT22;2388;53.582;9.962;2023-12-20T10:04:07;6.30;99.90
4749;DHT22;2388;53.582;9.962;2023-12-20T10:06:40;6.20;99.90
4749;DHT22;2388;53.582;9.962;2023-12-20T10:09:05;6.20;99.90
4749;DHT22;2388;53.582;9.962;2023-12-20T10:11:31;6.20;99.90
4749;DHT22;2388;53.582;9.962;2023-12-20T10:14:00;6.20;99.90
4749;DHT22;2388;53.582;9.962;2023-12-20T10:16:29;6.10;99.90
4749;DHT22;2388;53.582;9.962;2023-12-20T10:18:55;6.10;99.90
4749;DHT22;2388;53.582;9.962;2023-12-20T10:21:22;6.10;99.90
4749;DHT22;2388;53.582;9.962;2023-12-20T10:23:48;6.10;99.90
4749;DHT22;2388;53.582;9.962;2023-12-20T10:26:24;6.10;99.90
4749;DHT22;2388;53.582;9.962;2023-12-20T10:28:52;6.10;99.90
4749;DHT22;2388;53.582;9.962;2023-12-20T10:31:29;6.00;99.90
4749;DHT22;2388;53.582;9.962;2023-12-20T10:33:59;6.10;99.90
4749;DHT22;2388;53.582;9.962;2023-12-20T10:36:26;6.00;99.90
4749;DHT22;2388;53.582;9.962;2023-12-20T10:38:53;6.00;99.90
4749;DHT22;2388;53.582;9.962;2023-12-20T10:41:26;5.90;99.90
4749;DHT22;2388;53.582;9.962;2023-12-20T10:43:55;6.00;99.90
4749;DHT22;2388;53.582;9.962;2023-12-20T10:46:21;6.10;99.90
4749;DHT22;2388;53.582;9.962;2023-12-20T10:48:47;6.00;99.90
4749;DHT22;2388;53.582;9.962;2023-12-20T10:51:17;6.00;99.90
4749;DHT22;2388;53.582;9.962;2023-12-20T10:53:43;5.90;99.90
4749;DHT22;2388;53.582;9.962;2023-12-20T10:56:11;5.90;99.90
4749;DHT22;2388;53.582;9.962;2023-12-20T10:58:42;5.90;99.90
4749;DHT22;2388;53.582;9.962;2023-12-20T11:01:13;5.90;99.90
4749;DHT22;2388;53.582;9.962;2023-12-20T11:03:52;5.90;99.90
4749;DHT22;2388;53.582;9.962;2023-12-20T11:06:29;5.80;99.90
4749;DHT22;2388;53.582;9.962;2023-12-20T11:09:06;5.80;99.90
4749;DHT22;2388;53.582;9.962;2023-12-20T11:12:28;5.80;99.90
4749;DHT22;2388;53.582;9.962;2023-12-20T11:14:45;5.80;99.90
4749;DHT22;2388;53.582;9.962;2023-12-20T11:17:12;5.80;99.90
4749;DHT22;2388;53.582;9.962;2023-12-20T11:22:25;6.00;99.90
4749;DHT22;2388;53.582;9.962;2023-12-20T11:24:51;6.00;99.90
4749;DHT22;2388;53.582;9.962;2023-12-20T11:27:19;6.10;99.90
4749;DHT22;2388;53.582;9.962;2023-12-20T11:29:52;6.10;99.90
4749;DHT22;2388;53.582;9.962;2023-12-20T11:37:34;6.20;99.90
4749;DHT22;2388;53.582;9.962;2023-12-20T11:40:02;6.10;99.90
4749;DHT22;2388;53.582;9.962;2023-12-20T11:42:33;6.00;99.90
4749;DHT22;2388;53.582;9.962;2023-12-20T11:44:59;6.00;99.90
4749;DHT22;2388;53.582;9.962;2023-12-20T11:47:26;6.00;99.90
4749;DHT22;2388;53.582;9.962;2023-12-20T11:49:52;6.00;99.90
4749;DHT22;2388;53.582;9.962;2023-12-20T11:52:17;5.90;99.90
4749;DHT22;2388;53.582;9.962;2023-12-20T11:54:43;6.00;99.90
4749;DHT22;2388;53.582;9.962;2023-12-20T11:57:08;6.00;99.90
4749;DHT22;2388;53.582;9.962;2023-12-20T11:59:34;6.10;99.90
4749;DHT22;2388;53.582;9.962;2023-12-20T12:02:01;6.10;99.90
4749;DHT22;2388;53.582;9.962;2023-12-20T12:04:27;6.10;99.90
4749;DHT22;2388;53.582;9.962;2023-12-20T12:06:53;6.10;99.90
4749;DHT22;2388;53.582;9.962;2023-12-20T12:09:19;6.10;99.90
4749;DHT22;2388;53.582;9.962;2023-12-20T12:11:45;6.20;99.90
4749;DHT22;2388;53.582;9.962;2023-12-20T12:14:10;6.20;99.90
4749;DHT22;2388;53.582;9.962;2023-12-20T12:16:36;6.30;99.90
4749;DHT22;2388;53.582;9.962;2023-12-20T12:19:02;6.30;99.90
4749;DHT22;2388;53.582;9.962;2023-12-20T12:21:27;6.40;99.90
4749;DHT22;2388;53.582;9.962;2023-12-20T12:23:53;6.50;99.90
4749;DHT22;2388;53.582;9.962;2023-12-20T12:26:19;6.60;99.90
4749;DHT22;2388;53.582;9.962;2023-12-20T12:28:44;6.70;99.90
4749;DHT22;2388;53.582;9.962;2023-12-20T12:31:14;6.80;99.90
4749;DHT22;2388;53.582;9.962;2023-12-20T12:33:42;6.90;99.90
4749;DHT22;2388;53.582;9.962;2023-12-20T12:36:10;7.00;99.90
4749;DHT22;2388;53.582;9.962;2023-12-20T12:38:36;7.10;99.90
4749;DHT22;2388;53.582;9.962;2023-12-20T12:41:02;7.10;99.90
4749;DHT22;2388;53.582;9.962;2023-12-20T12:43:27;7.20;99.90
4749;DHT22;2388;53.582;9.962;2023-12-20T12:45:54;7.30;99.90
4749;DHT22;2388;53.582;9.962;2023-12-20T12:48:20;7.40;99.90
4749;DHT22;2388;53.582;9.962;2023-12-20T12:50:46;7.40;99.90
4749;DHT22;2388;53.582;9.962;2023-12-20T12:53:11;7.50;99.90
4749;DHT22;2388;53.582;9.962;2023-12-20T12:55:37;7.50;99.90
4749;DHT22;2388;53.582;9.962;2023-12-20T12:58:02;7.40;99.90
4749;DHT22;2388;53.582;9.962;2023-12-20T13:00:28;7.40;99.90
4749;DHT22;2388;53.582;9.962;2023-12-20T13:02:53;7.40;99.90
4749;DHT22;2388;53.582;9.962;2023-12-20T13:05:19;7.30;99.90
4749;DHT22;2388;53.582;9.962;2023-12-20T13:07:44;7.30;99.90
4749;DHT22;2388;53.582;9.962;2023-12-20T13:10:11;7.20;99.90
4749;DHT22;2388;53.582;9.962;2023-12-20T13:12:37;7.20;99.90
4749;DHT22;2388;53.582;9.962;2023-12-20T13:15:02;7.20;99.90
4749;DHT22;2388;53.582;9.962;2023-12-20T13:17:29;7.20;99.90
4749;DHT22;2388;53.582;9.962;2023-12-20T13:19:55;7.20;99.90
4749;DHT22;2388;53.582;9.962;2023-12-20T13:22:20;7.20;99.90
4749;DHT22;2388;53.582;9.962;2023-12-20T13:24:46;7.20;99.90
4749;DHT22;2388;53.582;9.962;2023-12-20T13:27:11;7.20;99.90
4749;DHT22;2388;53.582;9.962;2023-12-20T13:29:37;7.20;99.90
4749;DHT22;2388;53.582;9.962;2023-12-20T13:32:02;7.20;99.90
4749;DHT22;2388;53.582;9.962;2023-12-20T13:34:29;7.20;99.90
4749;DHT22;2388;53.582;9.962;2023-12-20T13:36:54;7.20;99.90
4749;DHT22;2388;53.582;9.962;2023-12-20T13:39:21;7.20;99.90
4749;DHT22;2388;53.582;9.962;2023-12-20T13:41:46;7.10;99.90
4749;DHT22;2388;53.582;9.962;2023-12-20T13:44:12;7.10;99.90
4749;DHT22;2388;53.582;9.962;2023-12-20T13:46:38;7.00;99.90
4749;DHT22;2388;53.582;9.962;2023-12-20T13:49:04;7.00;99.90
4749;DHT22;2388;53.582;9.962;2023-12-20T13:51:30;7.00;99.90
4749;DHT22;2388;53.582;9.962;2023-12-20T13:53:56;6.90;99.90
4749;DHT22;2388;53.582;9.962;2023-12-20T13:56:21;6.90;99.90
4749;DHT22;2388;53.582;9.962;2023-12-20T13:58:48;6.90;99.90
4749;DHT22;2388;53.582;9.962;2023-12-20T14:01:14;6.90;99.90
4749;DHT22;2388;53.582;9.962;2023-12-20T14:03:39;6.90;99.90
4749;DHT22;2388;53.582;9.962;2023-12-20T14:06:06;6.90;99.90
4749;DHT22;2388;53.582;9.962;2023-12-20T14:08:31;7.00;99.90
4749;DHT22;2388;53.582;9.962;2023-12-20T14:10:57;7.00;99.90
4749;DHT22;2388;53.582;9.962;2023-12-20T14:13:22;7.00;99.90
4749;DHT22;2388;53.582;9.962;2023-12-20T14:15:48;7.00;99.90
4749;DHT22;2388;53.582;9.962;2023-12-20T14:18:14;7.00;99.90
4749;DHT22;2388;53.582;9.962;2023-12-20T14:20:40;7.00;99.90
4749;DHT22;2388;53.582;9.962;2023-12-20T14:23:08;6.90;99.90
4749;DHT22;2388;53.582;9.962;2023-12-20T14:25:34;6.90;99.90
4749;DHT22;2388;53.582;9.962;2023-12-20T14:28:03;6.90;99.90
4749;DHT22;2388;53.582;9.962;2023-12-20T14:30:28;6.90;99.90
4749;DHT22;2388;53.582;9.962;2023-12-20T14:32:54;6.90;99.90
4749;DHT22;2388;53.582;9.962;2023-12-20T14:35:19;6.90;99.90
4749;DHT22;2388;53.582;9.962;2023-12-20T14:37:45;6.90;99.90
4749;DHT22;2388;53.582;9.962;2023-12-20T14:40:12;6.90;99.90
4749;DHT22;2388;53.582;9.962;2023-12-20T14:42:44;6.90;99.90
4749;DHT22;2388;53.582;9.962;2023-12-20T14:45:10;6.90;99.90
4749;DHT22;2388;53.582;9.962;2023-12-20T14:47:36;6.90;99.90
4749;DHT22;2388;53.582;9.962;2023-12-20T14:50:05;6.90;99.90
4749;DHT22;2388;53.582;9.962;2023-12-20T14:52:32;6.90;99.90
4749;DHT22;2388;53.582;9.962;2023-12-20T14:54:57;6.90;99.90
4749;DHT22;2388;53.582;9.962;2023-12-20T14:57:23;6.90;99.90
4749;DHT22;2388;53.582;9.962;2023-12-20T14:59:48;6.80;99.90
4749;DHT22;2388;53.582;9.962;2023-12-20T15:02:13;6.80;99.90
4749;DHT22;2388;53.582;9.962;2023-12-20T15:04:40;6.80;99.90
4749;DHT22;2388;53.582;9.962;2023-12-20T15:07:06;6.70;99.90
4749;DHT22;2388;53.582;9.962;2023-12-20T15:09:32;6.70;99.90
4749;DHT22;2388;53.582;9.962;2023-12-20T15:11:57;6.70;99.90
4749;DHT22;2388;53.582;9.962;2023-12-20T15:14:23;6.70;99.90
4749;DHT22;2388;53.582;9.962;2023-12-20T15:16:48;6.70;99.90
4749;DHT22;2388;53.582;9.962;2023-12-20T15:19:14;6.70;99.90
4749;DHT22;2388;53.582;9.962;2023-12-20T15:21:40;6.70;99.90
4749;DHT22;2388;53.582;9.962;2023-12-20T15:24:08;6.60;99.90
4749;DHT22;2388;53.582;9.962;2023-12-20T15:26:40;6.60;99.90
4749;DHT22;2388;53.582;9.962;2023-12-20T15:29:06;6.50;99.90
4749;DHT22;2388;53.582;9.962;2023-12-20T15:31:32;6.50;99.90
4749;DHT22;2388;53.582;9.962;2023-12-20T15:33:59;6.40;99.90
4749;DHT22;2388;53.582;9.962;2023-12-20T15:36:24;6.40;99.90
4749;DHT22;2388;53.582;9.962;2023-12-20T15:38:51;6.40;99.90
4749;DHT22;2388;53.582;9.962;2023-12-20T15:41:21;6.30;99.90
4749;DHT22;2388;53.582;9.962;2023-12-20T15:43:47;6.30;99.90
4749;DHT22;2388;53.582;9.962;2023-12-20T15:46:13;6.30;99.90
4749;DHT22;2388;53.582;9.962;2023-12-20T15:48:38;6.30;99.90
4749;DHT22;2388;53.582;9.962;2023-12-20T15:51:05;6.20;99.90
4749;DHT22;2388;53.582;9.962;2023-12-20T15:53:30;6.20;99.90
4749;DHT22;2388;53.582;9.962;2023-12-20T15:55:56;6.20;99.90
4749;DHT22;2388;53.582;9.962;2023-12-20T15:58:21;6.20;99.90
4749;DHT22;2388;53.582;9.962;2023-12-20T16:00:47;6.20;99.90
4749;DHT22;2388;53.582;9.962;2023-12-20T16:03:12;6.20;99.90
4749;DHT22;2388;53.582;9.962;2023-12-20T16:05:38;6.30;99.90
4749;DHT22;2388;53.582;9.962;2023-12-20T16:08:03;6.20;99.90
4749;DHT22;2388;53.582;9.962;2023-12-20T16:10:29;6.20;99.90
4749;DHT22;2388;53.582;9.962;2023-12-20T16:12:54;6.20;99.90
4749;DHT22;2388;53.582;9.962;2023-12-20T16:15:21;6.30;99.90
4749;DHT22;2388;53.582;9.962;2023-12-20T16:17:46;6.20;99.90